sensor_id;sensor_type;location;lat;lon;timestamp;temperature;humidity
25352;DHT22;13304;48.464;8.712;2024-01-11T00:01:48;-0.50;82.50
25352;DHT22;13304;48.464;8.712;2024-01-11T00:04:14;-0.50;82.50
25352;DHT22;13304;48.464;8.712;2024-01-11T00:06:41;-0.50;82.40
25352;DHT22;13304;48.464;8.712;2024-01-11T00:09:07;-0.60;82.20
25352;DHT22;13304;48.464;8.712;2024-01-11T00:11:33;-0.60;82.10
25352;DHT22;13304;48.464;8.712;2024-01-11T00:13:59;-0.60;82.00
25352;DHT22;13304;48.464;8.712;2024-01-11T00:16:24;-0.60;82.10
25352;DHT22;13304;48.464;8.712;2024-01-11T00:18:50;-0.60;82.10
25352;DHT22;13304;48.464;8.712;2024-01-11T00:21:15;-0.70;82.10
25352;DHT22;13304;48.464;8.712;2024-01-11T00:23:41;-0.70;82.20
25352;DHT22;13304;48.464;8.712;2024-01-11T00:26:07;-0.70;82.30
25352;DHT22;13304;48.464;8.712;2024-01-11T00:28:32;-0.70;82.30
25352;DHT22;13304;48.464;8.712;2024-01-11T00:30:58;-0.70;82.50
25352;DHT22;13304;48.464;8.712;2024-01-11T00:33:23;-0.70;82.50
25352;DHT22;13304;48.464;8.712;2024-01-11T00:35:49;-0.70;82.40
25352;DHT22;13304;48.464;8.712;2024-01-11T00:38:15;-0.70;82.50
25352;DHT22;13304;48.464;8.712;2024-01-11T00:40:40;-0.70;82.30
25352;DHT22;13304;48.464;8.712;2024-01-11T00:43:06;-0.80;82.30
25352;DHT22;13304;48.464;8.712;2024-01-11T00:45:31;-0.80;82.40
25352;DHT22;13304;48.464;8.712;2024-01-11T00:47:57;-0.80;82.40
25352;DHT22;13304;48.464;8.712;2024-01-11T00:50:23;-0.80;82.40
25352;DHT22;13304;48.464;8.712;2024-01-11T00:52:48;-0.80;82.30
25352;DHT22;13304;48.464;8.712;2024-01-11T00:55:14;-0.80;82.30
25352;DHT22;13304;48.464;8.712;2024-01-11T00:57:41;-0.80;82.30
25352;DHT22;13304;48.464;8.712;2024-01-11T01:00:07;-0.80;82.30
25352;DHT22;13304;48.464;8.712;2024-01-11T01:02:33;-0.80;82.30
25352;DHT22;13304;48.464;8.712;2024-01-11T01:04:59;-0.80;82.30
25352;DHT22;13304;48.464;8.712;2024-01-11T01:07:24;-0.80;82.40
25352;DHT22;13304;48.464;8.712;2024-01-11T01:09:50;-0.80;82.40
25352;DHT22;13304;48.464;8.712;2024-01-11T01:12:16;-0.80;82.20
25352;DHT22;13304;48.464;8.712;2024-01-11T01:14:41;-0.80;82.90
25352;DHT22;13304;48.464;8.712;2024-01-11T01:17:07;-0.80;82.20
25352;DHT22;13304;48.464;8.712;2024-01-11T01:19:32;-0.90;82.20
25352;DHT22;13304;48.464;8.712;2024-01-11T01:21:58;-0.90;82.20
25352;DHT22;13304;48.464;8.712;2024-01-11T01:24:24;-0.90;82.20
25352;DHT22;13304;48.464;8.712;2024-01-11T01:26:50;-0.90;82.20
25352;DHT22;13304;48.464;8.712;2024-01-11T01:29:16;-0.90;82.20
25352;DHT22;13304;48.464;8.712;2024-01-11T01:31:41;-0.90;82.20
25352;DHT22;13304;48.464;8.712;2024-01-11T01:34:07;-0.90;82.10
25352;DHT22;13304;48.464;8.712;2024-01-11T01:36:33;-0.90;82.00
25352;DHT22;13304;48.464;8.712;2024-01-11T01:38:58;-0.90;82.00
25352;DHT22;13304;48.464;8.712;2024-01-11T01:41:24;-0.90;82.00
25352;DHT22;13304;48.464;8.712;2024-01-11T01:43:49;-1.00;81.90
25352;DHT22;13304;48.464;8.712;2024-01-11T01:46:22;-1.00;81.90
25352;DHT22;13304;48.464;8.712;2024-01-11T01:48:48;-1.00;81.90
25352;DHT22;13304;48.464;8.712;2024-01-11T01:51:14;-1.00;82.00
25352;DHT22;13304;48.464;8.712;2024-01-11T01:53:40;-1.00;82.00
25352;DHT22;13304;48.464;8.712;2024-01-11T01:56:07;-1.00;82.00
25352;DHT22;13304;48.464;8.712;2024-01-11T01:58:33;-1.00;82.00
25352;DHT22;13304;48.464;8.712;2024-01-11T02:00:59;-1.00;82.00
25352;DHT22;13304;48.464;8.712;2024-01-11T02:03:28;-1.00;82.00
25352;DHT22;13304;48.464;8.712;2024-01-11T02:05:54;-1.00;82.00
25352;DHT22;13304;48.464;8.712;2024-01-11T02:08:22;-1.00;81.90
25352;DHT22;13304;48.464;8.712;2024-01-11T02:10:51;-1.00;81.70
25352;DHT22;13304;48.464;8.712;2024-01-11T02:13:17;-1.00;81.60
25352;DHT22;13304;48.464;8.712;2024-01-11T02:15:45;-1.10;81.50
25352;DHT22;13304;48.464;8.712;2024-01-11T02:18:10;-1.10;81.40
25352;DHT22;13304;48.464;8.712;2024-01-11T02:20:36;-1.10;81.30
25352;DHT22;13304;48.464;8.712;2024-01-11T02:23:05;-1.10;81.50
25352;DHT22;13304;48.464;8.712;2024-01-11T02:25:33;-1.20;81.50
25352;DHT22;13304;48.464;8.712;2024-01-11T02:27:59;-1.20;81.70
25352;DHT22;13304;48.464;8.712;2024-01-11T02:30:24;-1.20;81.80
25352;DHT22;13304;48.464;8.712;2024-01-11T02:32:50;-1.20;81.90
25352;DHT22;13304;48.464;8.712;2024-01-11T02:35:16;-1.30;81.80
25352;DHT22;13304;48.464;8.712;2024-01-11T02:37:42;-1.30;81.80
25352;DHT22;13304;48.464;8.712;2024-01-11T02:40:09;-1.30;81.80
25352;DHT22;13304;48.464;8.712;2024-01-11T02:42:35;-1.30;81.70
25352;DHT22;13304;48.464;8.712;2024-01-11T02:45:03;-1.30;81.70
25352;DHT22;13304;48.464;8.712;2024-01-11T02:47:29;-1.30;81.80
25352;DHT22;13304;48.464;8.712;2024-01-11T02:49:54;-1.30;81.80
25352;DHT22;13304;48.464;8.712;2024-01-11T02:52:20;-1.40;81.70
25352;DHT22;13304;48.464;8.712;2024-01-11T02:54:46;-1.40;81.70
25352;DHT22;13304;48.464;8.712;2024-01-11T02:57:11;-1.40;81.70
25352;DHT22;13304;48.464;8.712;2024-01-11T02:59:37;-1.40;82.20
25352;DHT22;13304;48.464;8.712;2024-01-11T03:02:03;-1.40;81.90
25352;DHT22;13304;48.464;8.712;2024-01-11T03:04:29;-1.50;82.00
25352;DHT22;13304;48.464;8.712;2024-01-11T03:06:55;-1.40;82.30
25352;DHT22;13304;48.464;8.712;2024-01-11T03:09:20;-1.50;82.30
25352;DHT22;13304;48.464;8.712;2024-01-11T03:11:46;-1.40;82.50
25352;DHT22;13304;48.464;8.712;2024-01-11T03:14:12;-1.50;82.50
25352;DHT22;13304;48.464;8.712;2024-01-11T03:16:38;-1.50;82.70
25352;DHT22;13304;48.464;8.712;2024-01-11T03:19:05;-1.40;82.70
25352;DHT22;13304;48.464;8.712;2024-01-11T03:21:31;-1.40;82.70
25352;DHT22;13304;48.464;8.712;2024-01-11T03:23:57;-1.40;83.40
25352;DHT22;13304;48.464;8.712;2024-01-11T03:26:22;-1.40;82.60
25352;DHT22;13304;48.464;8.712;2024-01-11T03:28:48;-1.40;82.50
25352;DHT22;13304;48.464;8.712;2024-01-11T03:31:14;-1.40;82.50
25352;DHT22;13304;48.464;8.712;2024-01-11T03:33:40;-1.40;82.50
25352;DHT22;13304;48.464;8.712;2024-01-11T03:36:10;-1.40;82.40
25352;DHT22;13304;48.464;8.712;2024-01-11T03:38:36;-1.30;82.40
25352;DHT22;13304;48.464;8.712;2024-01-11T03:41:02;-1.40;82.30
25352;DHT22;13304;48.464;8.712;2024-01-11T03:43:32;-1.30;82.30
25352;DHT22;13304;48.464;8.712;2024-01-11T03:45:58;-1.40;82.30
25352;DHT22;13304;48.464;8.712;2024-01-11T03:48:23;-1.40;82.20
25352;DHT22;13304;48.464;8.712;2024-01-11T03:50:49;-1.40;82.20
25352;DHT22;13304;48.464;8.712;2024-01-11T03:53:15;-1.30;82.30
25352;DHT22;13304;48.464;8.712;2024-01-11T03:55:40;-1.30;82.30
25352;DHT22;13304;48.464;8.712;2024-01-11T03:58:06;-1.30;82.30
25352;DHT22;13304;48.464;8.712;2024-01-11T04:00:32;-1.30;82.20
25352;DHT22;13304;48.464;8.712;2024-01-11T04:02:58;-1.30;82.20
25352;DHT22;13304;48.464;8.712;2024-01-11T04:05:24;-1.40;82.10
25352;DHT22;13304;48.464;8.712;2024-01-11T04:07:50;-1.40;82.00
25352;DHT22;13304;48.464;8.712;2024-01-11T04:10:17;-1.40;82.00
25352;DHT22;13304;48.464;8.712;2024-01-11T04:12:43;-1.40;81.90
25352;DHT22;13304;48.464;8.712;2024-01-11T04:15:11;-1.40;82.00
25352;DHT22;13304;48.464;8.712;2024-01-11T04:17:38;-1.40;81.90
25352;DHT22;13304;48.464;8.712;2024-01-11T04:20:05;-1.40;81.90
25352;DHT22;13304;48.464;8.712;2024-01-11T04:22:30;-1.40;81.80
25352;DHT22;13304;48.464;8.712;2024-01-11T04:24:56;-1.40;81.70
25352;DHT22;13304;48.464;8.712;2024-01-11T04:27:22;-1.40;81.70
25352;DHT22;13304;48.464;8.712;2024-01-11T04:29:47;-1.40;81.40
25352;DHT22;13304;48.464;8.712;2024-01-11T04:32:13;-1.40;81.50
25352;DHT22;13304;48.464;8.712;2024-01-11T04:34:39;-1.40;81.50
25352;DHT22;13304;48.464;8.712;2024-01-11T04:37:05;-1.50;81.40
25352;DHT22;13304;48.464;8.712;2024-01-11T04:39:31;-1.50;81.40
25352;DHT22;13304;48.464;8.712;2024-01-11T04:41:57;-1.50;81.50
25352;DHT22;13304;48.464;8.712;2024-01-11T04:44:22;-1.50;81.50
25352;DHT22;13304;48.464;8.712;2024-01-11T04:46:48;-1.50;81.50
25352;DHT22;13304;48.464;8.712;2024-01-11T04:49:13;-1.50;81.50
25352;DHT22;13304;48.464;8.712;2024-01-11T04:51:39;-1.50;81.50
25352;DHT22;13304;48.464;8.712;2024-01-11T04:54:05;-1.50;81.50
25352;DHT22;13304;48.464;8.712;2024-01-11T04:56:30;-1.60;81.50
25352;DHT22;13304;48.464;8.712;2024-01-11T04:58:56;-1.60;81.50
25352;DHT22;13304;48.464;8.712;2024-01-11T05:01:22;-1.60;81.60
25352;DHT22;13304;48.464;8.712;2024-01-11T05:03:48;-1.60;81.40
25352;DHT22;13304;48.464;8.712;2024-01-11T05:06:18;-1.60;81.20
25352;DHT22;13304;48.464;8.712;2024-01-11T05:08:45;-1.60;81.10
25352;DHT22;13304;48.464;8.712;2024-01-11T05:11:18;-1.60;81.20
25352;DHT22;13304;48.464;8.712;2024-01-11T05:13:44;-1.60;81.20
25352;DHT22;13304;48.464;8.712;2024-01-11T05:16:34;-1.60;81.40
25352;DHT22;13304;48.464;8.712;2024-01-11T05:19:01;-1.70;81.20
25352;DHT22;13304;48.464;8.712;2024-01-11T05:21:26;-1.60;81.40
25352;DHT22;13304;48.464;8.712;2024-01-11T05:23:52;-1.70;81.30
25352;DHT22;13304;48.464;8.712;2024-01-11T05:26:19;-1.70;81.30
25352;DHT22;13304;48.464;8.712;2024-01-11T05:28:45;-1.70;81.10
25352;DHT22;13304;48.464;8.712;2024-01-11T05:31:14;-1.70;80.80
25352;DHT22;13304;48.464;8.712;2024-01-11T05:33:41;-1.70;81.30
25352;DHT22;13304;48.464;8.712;2024-01-11T05:36:07;-1.70;80.50
25352;DHT22;13304;48.464;8.712;2024-01-11T05:38:33;-1.80;80.50
25352;DHT22;13304;48.464;8.712;2024-01-11T05:40:59;-1.80;80.70
25352;DHT22;13304;48.464;8.712;2024-01-11T05:43:25;-1.80;80.90
25352;DHT22;13304;48.464;8.712;2024-01-11T05:45:51;-1.90;80.80
25352;DHT22;13304;48.464;8.712;2024-01-11T05:48:17;-1.90;80.90
25352;DHT22;13304;48.464;8.712;2024-01-11T05:50:43;-1.90;81.20
25352;DHT22;13304;48.464;8.712;2024-01-11T05:53:10;-1.90;81.30
25352;DHT22;13304;48.464;8.712;2024-01-11T05:55:36;-2.00;81.40
25352;DHT22;13304;48.464;8.712;2024-01-11T05:58:03;-2.00;81.50
25352;DHT22;13304;48.464;8.712;2024-01-11T06:00:28;-2.00;81.60
25352;DHT22;13304;48.464;8.712;2024-01-11T06:02:54;-1.90;81.70
25352;DHT22;13304;48.464;8.712;2024-01-11T06:05:20;-1.90;81.80
25352;DHT22;13304;48.464;8.712;2024-01-11T06:07:46;-1.90;81.70
25352;DHT22;13304;48.464;8.712;2024-01-11T06:10:13;-1.90;81.70
25352;DHT22;13304;48.464;8.712;2024-01-11T06:12:39;-1.90;81.70
25352;DHT22;13304;48.464;8.712;2024-01-11T06:15:06;-1.90;81.70
25352;DHT22;13304;48.464;8.712;2024-01-11T06:17:32;-1.90;81.60
25352;DHT22;13304;48.464;8.712;2024-01-11T06:19:57;-1.90;81.60
25352;DHT22;13304;48.464;8.712;2024-01-11T06:22:23;-1.90;81.60
25352;DHT22;13304;48.464;8.712;2024-01-11T06:24:49;-1.80;81.80
25352;DHT22;13304;48.464;8.712;2024-01-11T06:27:14;-1.90;81.70
25352;DHT22;13304;48.464;8.712;2024-01-11T06:29:40;-1.90;81.70
25352;DHT22;13304;48.464;8.712;2024-01-11T06:32:06;-1.90;81.70
25352;DHT22;13304;48.464;8.712;2024-01-11T06:34:32;-1.80;81.70
25352;DHT22;13304;48.464;8.712;2024-01-11T06:36:57;-1.80;81.70
25352;DHT22;13304;48.464;8.712;2024-01-11T06:39:23;-1.80;81.60
25352;DHT22;13304;48.464;8.712;2024-01-11T06:41:49;-1.80;81.40
25352;DHT22;13304;48.464;8.712;2024-01-11T06:44:14;-1.80;81.30
25352;DHT22;13304;48.464;8.712;2024-01-11T06:46:40;-1.90;81.30
25352;DHT22;13304;48.464;8.712;2024-01-11T06:49:07;-1.80;81.30
25352;DHT22;13304;48.464;8.712;2024-01-11T06:51:33;-1.90;81.20
25352;DHT22;13304;48.464;8.712;2024-01-11T06:53:59;-1.80;81.30
25352;DHT22;13304;48.464;8.712;2024-01-11T06:56:26;-1.90;81.30
25352;DHT22;13304;48.464;8.712;2024-01-11T06:58:52;-1.90;81.30
25352;DHT22;13304;48.464;8.712;2024-01-11T07:01:18;-1.90;81.30
25352;DHT22;13304;48.464;8.712;2024-01-11T07:03:44;-1.90;81.40
25352;DHT22;13304;48.464;8.712;2024-01-11T07:06:10;-1.90;81.50
25352;DHT22;13304;48.464;8.712;2024-01-11T07:08:36;-1.90;81.50
25352;DHT22;13304;48.464;8.712;2024-01-11T07:11:01;-1.90;81.50
25352;DHT22;13304;48.464;8.712;2024-01-11T07:13:31;-1.90;81.50
25352;DHT22;13304;48.464;8.712;2024-01-11T07:15:59;-1.90;81.50
25352;DHT22;13304;48.464;8.712;2024-01-11T07:18:25;-1.90;81.50
25352;DHT22;13304;48.464;8.712;2024-01-11T07:20:53;-1.90;81.50
25352;DHT22;13304;48.464;8.712;2024-01-11T07:23:18;-1.90;81.40
25352;DHT22;13304;48.464;8.712;2024-01-11T07:25:44;-1.90;81.20
25352;DHT22;13304;48.464;8.712;2024-01-11T07:28:10;-1.90;81.20
25352;DHT22;13304;48.464;8.712;2024-01-11T07:30:36;-1.90;81.00
25352;DHT22;13304;48.464;8.712;2024-01-11T07:33:01;-1.90;81.60
25352;DHT22;13304;48.464;8.712;2024-01-11T07:35:27;-1.90;80.70
25352;DHT22;13304;48.464;8.712;2024-01-11T07:37:53;-1.90;80.80
25352;DHT22;13304;48.464;8.712;2024-01-11T07:40:19;-2.00;80.90
25352;DHT22;13304;48.464;8.712;2024-01-11T07:42:47;-2.00;81.10
25352;DHT22;13304;48.464;8.712;2024-01-11T07:45:13;-2.00;81.30
25352;DHT22;13304;48.464;8.712;2024-01-11T07:47:42;-2.00;81.50
25352;DHT22;13304;48.464;8.712;2024-01-11T07:50:08;-2.00;81.50
25352;DHT22;13304;48.464;8.712;2024-01-11T07:52:37;-2.00;81.60
25352;DHT22;13304;48.464;8.712;2024-01-11T07:55:07;-1.90;81.80
25352;DHT22;13304;48.464;8.712;2024-01-11T07:57:36;-1.90;81.80
25352;DHT22;13304;48.464;8.712;2024-01-11T08:00:03;-1.90;81.90
25352;DHT22;13304;48.464;8.712;2024-01-11T08:02:32;-1.90;82.10
25352;DHT22;13304;48.464;8.712;2024-01-11T08:04:58;-1.90;82.20
25352;DHT22;13304;48.464;8.712;2024-01-11T08:07:26;-1.80;82.40
25352;DHT22;13304;48.464;8.712;2024-01-11T08:09:51;-1.80;82.50
25352;DHT22;13304;48.464;8.712;2024-01-11T08:12:17;-1.80;82.40
25352;DHT22;13304;48.464;8.712;2024-01-11T08:14:43;-1.70;82.30
25352;DHT22;13304;48.464;8.712;2024-01-11T08:17:08;-1.80;82.40
25352;DHT22;13304;48.464;8.712;2024-01-11T08:19:35;-1.70;82.50
25352;DHT22;13304;48.464;8.712;2024-01-11T08:22:01;-1.70;82.50
25352;DHT22;13304;48.464;8.712;2024-01-11T08:24:28;-1.70;82.60
25352;DHT22;13304;48.464;8.712;2024-01-11T08:26:54;-1.60;82.60
25352;DHT22;13304;48.464;8.712;2024-01-11T08:29:20;-1.60;82.70
25352;DHT22;13304;48.464;8.712;2024-01-11T08:31:46;-1.60;82.70
25352;DHT22;13304;48.464;8.712;2024-01-11T08:34:11;-1.60;82.80
25352;DHT22;13304;48.464;8.712;2024-01-11T08:36:37;-1.50;83.00
25352;DHT22;13304;48.464;8.712;2024-01-11T08:39:07;-1.50;83.10
25352;DHT22;13304;48.464;8.712;2024-01-11T08:41:36;-1.50;83.10
25352;DHT22;13304;48.464;8.712;2024-01-11T08:44:03;-1.40;83.10
25352;DHT22;13304;48.464;8.712;2024-01-11T08:46:31;-1.40;83.10
25352;DHT22;13304;48.464;8.712;2024-01-11T08:48:59;-1.30;83.10
25352;DHT22;13304;48.464;8.712;2024-01-11T08:51:25;-1.30;83.10
25352;DHT22;13304;48.464;8.712;2024-01-11T08:53:51;-1.30;83.10
25352;DHT22;13304;48.464;8.712;2024-01-11T08:56:18;-1.30;83.10
25352;DHT22;13304;48.464;8.712;2024-01-11T08:58:44;-1.20;83.30
25352;DHT22;13304;48.464;8.712;2024-01-11T09:01:11;-1.20;83.40
25352;DHT22;13304;48.464;8.712;2024-01-11T09:03:36;-1.20;83.80
25352;DHT22;13304;48.464;8.712;2024-01-11T09:06:03;-1.20;83.90
25352;DHT22;13304;48.464;8.712;2024-01-11T09:08:29;-1.10;84.20
25352;DHT22;13304;48.464;8.712;2024-01-11T09:11:02;-1.10;84.40
25352;DHT22;13304;48.464;8.712;2024-01-11T09:13:29;-1.00;84.80
25352;DHT22;13304;48.464;8.712;2024-01-11T09:15:55;-1.00;85.10
25352;DHT22;13304;48.464;8.712;2024-01-11T09:18:21;-1.00;85.30
25352;DHT22;13304;48.464;8.712;2024-01-11T09:20:47;-0.90;85.50
25352;DHT22;13304;48.464;8.712;2024-01-11T09:23:13;-0.90;85.60
25352;DHT22;13304;48.464;8.712;2024-01-11T09:25:39;-0.80;86.30
25352;DHT22;13304;48.464;8.712;2024-01-11T09:28:05;-0.80;86.40
25352;DHT22;13304;48.464;8.712;2024-01-11T09:30:31;-0.70;86.50
25352;DHT22;13304;48.464;8.712;2024-01-11T09:32:57;-0.60;86.50
25352;DHT22;13304;48.464;8.712;2024-01-11T09:35:23;-0.60;86.50
25352;DHT22;13304;48.464;8.712;2024-01-11T09:37:49;-0.50;86.90
25352;DHT22;13304;48.464;8.712;2024-01-11T09:40:15;-0.40;87.00
25352;DHT22;13304;48.464;8.712;2024-01-11T09:42:44;-0.40;86.90
25352;DHT22;13304;48.464;8.712;2024-01-11T09:45:13;-0.30;86.80
25352;DHT22;13304;48.464;8.712;2024-01-11T09:47:39;-0.30;86.70
25352;DHT22;13304;48.464;8.712;2024-01-11T09:50:08;-0.20;86.70
25352;DHT22;13304;48.464;8.712;2024-01-11T09:52:36;-0.10;86.60
25352;DHT22;13304;48.464;8.712;2024-01-11T09:55:03;0.00;86.50
25352;DHT22;13304;48.464;8.712;2024-01-11T09:57:31;0.00;86.30
25352;DHT22;13304;48.464;8.712;2024-01-11T09:59:59;0.10;86.20
25352;DHT22;13304;48.464;8.712;2024-01-11T10:02:29;0.10;86.10
25352;DHT22;13304;48.464;8.712;2024-01-11T10:04:55;0.10;86.00
25352;DHT22;13304;48.464;8.712;2024-01-11T10:07:22;0.20;86.10
25352;DHT22;13304;48.464;8.712;2024-01-11T10:09:48;0.30;86.10
25352;DHT22;13304;48.464;8.712;2024-01-11T10:12:15;0.30;86.10
25352;DHT22;13304;48.464;8.712;2024-01-11T10:14:41;0.30;86.00
25352;DHT22;13304;48.464;8.712;2024-01-11T10:17:07;0.40;86.10
25352;DHT22;13304;48.464;8.712;2024-01-11T10:19:33;0.40;85.90
25352;DHT22;13304;48.464;8.712;2024-01-11T10:21:59;0.40;85.70
25352;DHT22;13304;48.464;8.712;2024-01-11T10:24:25;0.50;85.90
25352;DHT22;13304;48.464;8.712;2024-01-11T10:26:58;0.50;85.90
25352;DHT22;13304;48.464;8.712;2024-01-11T10:29:30;0.50;86.00
25352;DHT22;13304;48.464;8.712;2024-01-11T10:31:56;0.60;86.00
25352;DHT22;13304;48.464;8.712;2024-01-11T10:34:23;0.60;85.90
25352;DHT22;13304;48.464;8.712;2024-01-11T10:36:52;0.60;85.90
25352;DHT22;13304;48.464;8.712;2024-01-11T10:39:24;0.70;86.00
25352;DHT22;13304;48.464;8.712;2024-01-11T10:41:52;0.70;85.80
25352;DHT22;13304;48.464;8.712;2024-01-11T10:44:21;0.70;85.90
25352;DHT22;13304;48.464;8.712;2024-01-11T10:46:49;0.80;85.90
25352;DHT22;13304;48.464;8.712;2024-01-11T10:49:18;0.70;86.00
25352;DHT22;13304;48.464;8.712;2024-01-11T10:51:59;0.80;86.00
25352;DHT22;13304;48.464;8.712;2024-01-11T10:54:27;0.80;86.00
25352;DHT22;13304;48.464;8.712;2024-01-11T10:56:54;0.90;86.20
25352;DHT22;13304;48.464;8.712;2024-01-11T10:59:21;0.80;86.10
25352;DHT22;13304;48.464;8.712;2024-01-11T11:01:53;0.90;86.00
25352;DHT22;13304;48.464;8.712;2024-01-11T11:04:22;0.90;86.10
25352;DHT22;13304;48.464;8.712;2024-01-11T11:06:52;0.90;86.30
25352;DHT22;13304;48.464;8.712;2024-01-11T11:09:20;0.90;86.30
25352;DHT22;13304;48.464;8.712;2024-01-11T11:11:47;0.90;86.60
25352;DHT22;13304;48.464;8.712;2024-01-11T11:14:15;1.00;86.60
25352;DHT22;13304;48.464;8.712;2024-01-11T11:16:41;1.00;86.30
25352;DHT22;13304;48.464;8.712;2024-01-11T11:19:07;1.00;86.30
25352;DHT22;13304;48.464;8.712;2024-01-11T11:21:42;1.00;86.20
25352;DHT22;13304;48.464;8.712;2024-01-11T11:24:08;1.00;86.20
25352;DHT22;13304;48.464;8.712;2024-01-11T11:26:35;1.10;86.40
25352;DHT22;13304;48.464;8.712;2024-01-11T11:29:02;1.10;86.30
25352;DHT22;13304;48.464;8.712;2024-01-11T11:31:38;1.10;86.30
25352;DHT22;13304;48.464;8.712;2024-01-11T11:34:06;1.10;86.50
25352;DHT22;13304;48.464;8.712;2024-01-11T11:36:33;1.20;86.70
25352;DHT22;13304;48.464;8.712;2024-01-11T11:39:01;1.10;86.50
25352;DHT22;13304;48.464;8.712;2024-01-11T11:41:27;1.20;86.90
25352;DHT22;13304;48.464;8.712;2024-01-11T11:43:53;1.20;86.70
25352;DHT22;13304;48.464;8.712;2024-01-11T11:46:19;1.20;86.40
25352;DHT22;13304;48.464;8.712;2024-01-11T11:51:15;1.20;86.60
25352;DHT22;13304;48.464;8.712;2024-01-11T11:53:41;1.30;86.60
25352;DHT22;13304;48.464;8.712;2024-01-11T11:56:09;1.30;86.70
25352;DHT22;13304;48.464;8.712;2024-01-11T11:58:38;1.40;86.90
25352;DHT22;13304;48.464;8.712;2024-01-11T12:01:08;1.40;86.90
25352;DHT22;13304;48.464;8.712;2024-01-11T12:03:38;1.40;86.80
25352;DHT22;13304;48.464;8.712;2024-01-11T12:06:09;1.50;87.00
25352;DHT22;13304;48.464;8.712;2024-01-11T12:11:58;1.50;86.90
25352;DHT22;13304;48.464;8.712;2024-01-11T12:14:24;1.60;86.80
25352;DHT22;13304;48.464;8.712;2024-01-11T12:16:59;1.60;86.70
25352;DHT22;13304;48.464;8.712;2024-01-11T12:19:25;1.60;86.50
25352;DHT22;13304;48.464;8.712;2024-01-11T12:21:51;1.60;86.20
25352;DHT22;13304;48.464;8.712;2024-01-11T12:24:17;1.70;86.30
25352;DHT22;13304;48.464;8.712;2024-01-11T12:26:43;1.70;86.10
25352;DHT22;13304;48.464;8.712;2024-01-11T12:29:10;1.70;86.10
25352;DHT22;13304;48.464;8.712;2024-01-11T12:31:35;1.80;85.90
25352;DHT22;13304;48.464;8.712;2024-01-11T12:34:02;1.80;85.80
25352;DHT22;13304;48.464;8.712;2024-01-11T12:36:29;1.80;85.80
25352;DHT22;13304;48.464;8.712;2024-01-11T12:38:55;1.80;85.60
25352;DHT22;13304;48.464;8.712;2024-01-11T12:41:23;1.80;85.10
25352;DHT22;13304;48.464;8.712;2024-01-11T12:43:49;1.90;85.20
25352;DHT22;13304;48.464;8.712;2024-01-11T12:46:15;1.90;85.30
25352;DHT22;13304;48.464;8.712;2024-01-11T12:48:43;1.90;85.10
25352;DHT22;13304;48.464;8.712;2024-01-11T12:51:09;2.00;85.10
25352;DHT22;13304;48.464;8.712;2024-01-11T12:53:37;2.00;84.60
25352;DHT22;13304;48.464;8.712;2024-01-11T12:56:04;1.90;84.50
25352;DHT22;13304;48.464;8.712;2024-01-11T12:58:34;2.00;84.80
25352;DHT22;13304;48.464;8.712;2024-01-11T13:00:59;2.00;85.00
25352;DHT22;13304;48.464;8.712;2024-01-11T13:03:25;2.10;84.80
25352;DHT22;13304;48.464;8.712;2024-01-11T13:05:52;2.10;85.00
25352;DHT22;13304;48.464;8.712;2024-01-11T13:08:18;2.00;84.40
25352;DHT22;13304;48.464;8.712;2024-01-11T13:10:44;2.10;84.50
25352;DHT22;13304;48.464;8.712;2024-01-11T13:13:09;2.10;84.50
25352;DHT22;13304;48.464;8.712;2024-01-11T13:15:35;2.10;84.40
25352;DHT22;13304;48.464;8.712;2024-01-11T13:18:04;2.10;84.50
25352;DHT22;13304;48.464;8.712;2024-01-11T13:20:30;2.10;84.40
25352;DHT22;13304;48.464;8.712;2024-01-11T13:23:26;2.10;84.40
25352;DHT22;13304;48.464;8.712;2024-01-11T13:25:52;2.10;83.80
25352;DHT22;13304;48.464;8.712;2024-01-11T13:28:17;2.20;84.10
25352;DHT22;13304;48.464;8.712;2024-01-11T13:30:44;2.20;84.40
25352;DHT22;13304;48.464;8.712;2024-01-11T13:33:14;2.20;84.40
25352;DHT22;13304;48.464;8.712;2024-01-11T13:35:43;2.20;84.40
25352;DHT22;13304;48.464;8.712;2024-01-11T13:38:09;2.20;84.40
25352;DHT22;13304;48.464;8.712;2024-01-11T13:40:34;2.30;84.50
25352;DHT22;13304;48.464;8.712;2024-01-11T13:43:00;2.20;84.30
25352;DHT22;13304;48.464;8.712;2024-01-11T13:45:28;2.30;84.00
25352;DHT22;13304;48.464;8.712;2024-01-11T13:47:55;2.20;84.20
25352;DHT22;13304;48.464;8.712;2024-01-11T13:50:23;2.30;84.30
25352;DHT22;13304;48.464;8.712;2024-01-11T13:52:52;2.30;84.30
25352;DHT22;13304;48.464;8.712;2024-01-11T13:55:17;2.30;84.20
25352;DHT22;13304;48.464;8.712;2024-01-11T13:57:47;2.30;84.00
25352;DHT22;13304;48.464;8.712;2024-01-11T14:00:13;2.30;84.10
25352;DHT22;13304;48.464;8.712;2024-01-11T14:02:39;2.30;83.60
25352;DHT22;13304;48.464;8.712;2024-01-11T14:05:08;2.30;83.80
25352;DHT22;13304;48.464;8.712;2024-01-11T14:07:40;2.30;83.80
25352;DHT22;13304;48.464;8.712;2024-01-11T14:10:07;2.30;83.80
25352;DHT22;13304;48.464;8.712;2024-01-11T14:12:34;2.30;83.80
25352;DHT22;13304;48.464;8.712;2024-01-11T14:15:02;2.30;83.70
25352;DHT22;13304;48.464;8.712;2024-01-11T14:17:28;2.30;83.80
25352;DHT22;13304;48.464;8.712;2024-01-11T14:19:53;2.30;84.00
25352;DHT22;13304;48.464;8.712;2024-01-11T14:22:19;2.40;83.90
25352;DHT22;13304;48.464;8.712;2024-01-11T14:24:44;2.30;83.80
25352;DHT22;13304;48.464;8.712;2024-01-11T14:27:10;2.40;83.80
25352;DHT22;13304;48.464;8.712;2024-01-11T14:29:36;2.40;84.00
25352;DHT22;13304;48.464;8.712;2024-01-11T14:32:02;2.40;83.70
25352;DHT22;13304;48.464;8.712;2024-01-11T14:34:28;2.30;83.60
25352;DHT22;13304;48.464;8.712;2024-01-11T14:36:53;2.30;83.70
25352;DHT22;13304;48.464;8.712;2024-01-11T14:39:19;2.40;83.80
25352;DHT22;13304;48.464;8.712;2024-01-11T14:41:45;2.30;83.90
25352;DHT22;13304;48.464;8.712;2024-01-11T14:44:11;2.40;83.80
25352;DHT22;13304;48.464;8.712;2024-01-11T14:46:36;2.40;83.70
25352;DHT22;13304;48.464;8.712;2024-01-11T14:49:02;2.40;83.90
25352;DHT22;13304;48.464;8.712;2024-01-11T14:51:29;2.30;83.90
25352;DHT22;13304;48.464;8.712;2024-01-11T14:54:01;2.30;83.90
25352;DHT22;13304;48.464;8.712;2024-01-11T14:56:29;2.40;84.00
25352;DHT22;13304;48.464;8.712;2024-01-11T14:58:55;2.30;83.70
25352;DHT22;13304;48.464;8.712;2024-01-11T15:01:20;2.30;83.90
25352;DHT22;13304;48.464;8.712;2024-01-11T15:03:46;2.30;83.70
25352;DHT22;13304;48.464;8.712;2024-01-11T15:06:12;2.30;83.80
25352;DHT22;13304;48.464;8.712;2024-01-11T15:08:37;2.30;83.80
25352;DHT22;13304;48.464;8.712;2024-01-11T15:11:04;2.20;83.80
25352;DHT22;13304;48.464;8.712;2024-01-11T15:13:31;2.30;83.90
25352;DHT22;13304;48.464;8.712;2024-01-11T15:15:57;2.20;83.80
25352;DHT22;13304;48.464;8.712;2024-01-11T15:18:22;2.20;83.80
25352;DHT22;13304;48.464;8.712;2024-01-11T15:20:48;2.10;83.70
25352;DHT22;13304;48.464;8.712;2024-01-11T15:23:14;2.10;83.70
25352;DHT22;13304;48.464;8.712;2024-01-11T15:25:39;2.10;84.00
25352;DHT22;13304;48.464;8.712;2024-01-11T15:28:05;2.10;83.90
25352;DHT22;13304;48.464;8.712;2024-01-11T15:30:31;2.10;83.80
25352;DHT22;13304;48.464;8.712;2024-01-11T15:32:56;2.10;83.90
25352;DHT22;13304;48.464;8.712;2024-01-11T15:35:22;2.10;83.80
25352;DHT22;13304;48.464;8.712;2024-01-11T15:37:48;2.00;83.90
25352;DHT22;13304;48.464;8.712;2024-01-11T15:40:14;2.00;83.80